createdAt,value
2018-09-03T00:00:17.524Z,1000.40
2018-09-03T00:01:23.928Z,1000.37
2018-09-03T00:02:29.800Z,1000.32
2018-09-03T00:03:36.275Z,1000.31
2018-09-03T00:04:42.551Z,1000.32
2018-09-03T00:05:48.943Z,1000.33
2018-09-03T00:06:55.331Z,1000.30
2018-09-03T00:08:01.705Z,1000.32
2018-09-03T00:09:08.083Z,1000.29
2018-09-03T00:10:14.957Z,1000.22
2018-09-03T00:11:20.843Z,1000.20
2018-09-03T00:12:27.715Z,1000.16
2018-09-03T00:13:33.595Z,1000.11
2018-09-03T00:14:40.477Z,1000.11
2018-09-03T00:15:46.881Z,1000.13
2018-09-03T00:16:52.738Z,1000.08
2018-09-03T00:17:59.113Z,1000.05
2018-09-03T00:19:05.490Z,999.99
2018-09-03T00:20:11.862Z,1000.01
2018-09-03T00:21:18.243Z,1000.11
2018-09-03T00:22:25.103Z,1000.11
2018-09-03T00:23:30.990Z,1000.06
2018-09-03T00:24:37.367Z,1000.15
2018-09-03T00:25:43.743Z,1000.02
2018-09-03T00:26:50.124Z,1000.03
2018-09-03T00:27:56.497Z,999.98
2018-09-03T00:29:02.870Z,999.96
2018-09-03T00:30:09.309Z,999.95
2018-09-03T00:31:15.631Z,999.95
2018-09-03T00:32:22.496Z,999.96
2018-09-03T00:33:28.381Z,999.89
2018-09-03T00:34:35.245Z,999.94
2018-09-03T00:35:41.131Z,999.90
2018-09-03T00:36:47.502Z,999.93
2018-09-03T00:37:54.368Z,999.92
2018-09-03T00:39:00.752Z,999.93
2018-09-03T00:40:07.132Z,999.94
2018-09-03T00:41:13.502Z,999.99
2018-09-03T00:42:19.388Z,999.96
2018-09-03T00:43:26.267Z,999.95
2018-09-03T00:44:32.145Z,999.98
2018-09-03T00:45:38.526Z,1000.00
2018-09-03T00:46:45.423Z,999.94
2018-09-03T00:47:51.292Z,999.96
2018-09-03T00:48:58.273Z,999.96
2018-09-03T00:50:04.540Z,999.99
2018-09-03T00:51:10.937Z,1000.00
2018-09-03T00:52:17.320Z,1000.07
2018-09-03T00:53:23.201Z,1000.02
2018-09-03T00:54:30.079Z,1000.07
2018-09-03T00:55:35.964Z,1000.06
2018-09-03T00:56:42.344Z,1000.14
2018-09-03T00:57:48.735Z,1000.16
2018-09-03T00:58:55.107Z,1000.19
2018-09-03T01:00:01.480Z,1000.23
2018-09-03T01:01:08.349Z,1000.23
2018-09-03T01:02:14.748Z,1000.20
2018-09-03T01:03:21.634Z,1000.15
2018-09-03T01:04:27.003Z,1000.10
2018-09-03T01:05:33.385Z,1000.01
2018-09-03T01:06:40.268Z,1000.00
2018-09-03T01:07:46.147Z,1000.04
2018-09-03T01:08:53.019Z,1000.11
2018-09-03T01:09:59.389Z,1000.12
2018-09-03T01:11:05.769Z,1000.14
2018-09-03T01:12:11.666Z,1000.15
2018-09-03T01:13:18.039Z,1000.11
2018-09-03T01:14:24.416Z,1000.13
2018-09-03T01:15:30.795Z,1000.11
2018-09-03T01:16:37.173Z,1000.08
2018-09-03T01:17:44.049Z,1000.09
2018-09-03T01:18:49.935Z,1000.19
2018-09-03T01:19:56.317Z,1000.17
2018-09-03T01:21:02.687Z,1000.20
2018-09-03T01:22:09.070Z,1000.24
2018-09-03T01:23:15.949Z,1000.27
2018-09-03T01:24:21.826Z,1000.21
2018-09-03T01:25:28.694Z,1000.12
2018-09-03T01:26:35.081Z,1000.10
2018-09-03T01:27:40.977Z,1000.13
2018-09-03T01:28:47.365Z,1000.15
2018-09-03T01:29:53.733Z,1000.14
2018-09-03T01:31:00.125Z,1000.19
2018-09-03T01:32:06.509Z,1000.11
2018-09-03T01:33:12.899Z,1000.04
2018-09-03T01:34:19.770Z,1000.08
2018-09-03T01:35:25.658Z,1000.11
2018-09-03T01:36:32.068Z,1000.13
2018-09-03T01:37:38.925Z,1000.10
2018-09-03T01:38:45.328Z,1000.12
2018-09-03T01:39:51.699Z,1000.13
2018-09-03T01:40:57.591Z,1000.16
2018-09-03T01:42:03.985Z,1000.17
2018-09-03T01:43:10.369Z,1000.23
2018-09-03T01:44:17.236Z,1000.23
2018-09-03T01:45:23.136Z,1000.25
2018-09-03T01:46:30.031Z,1000.27
2018-09-03T01:47:36.422Z,1000.29
2018-09-03T01:48:42.311Z,1000.26
2018-09-03T01:49:49.192Z,1000.26
2018-09-03T01:50:55.107Z,1000.21
2018-09-03T01:52:01.467Z,1000.15
2018-09-03T01:53:07.864Z,1000.09
2018-09-03T01:54:14.250Z,1000.07
2018-09-03T01:55:20.637Z,1000.06
2018-09-03T01:56:27.513Z,1000.16
2018-09-03T01:57:33.432Z,1000.11
2018-09-03T01:58:39.797Z,1000.16
2018-09-03T01:59:46.194Z,1000.15
2018-09-03T02:00:52.582Z,1000.14
2018-09-03T02:01:58.961Z,1000.14
2018-09-03T02:03:05.854Z,1000.05
2018-09-03T02:04:11.751Z,1000.17
2018-09-03T02:05:18.130Z,1000.15
2018-09-03T02:06:25.010Z,1000.19
2018-09-03T02:07:30.917Z,1000.18
2018-09-03T02:08:37.343Z,1000.13
2018-09-03T02:09:43.700Z,1000.08
2018-09-03T02:10:50.577Z,1000.07
2018-09-03T02:11:56.969Z,1000.03
2018-09-03T02:13:02.876Z,1000.03
2018-09-03T02:14:09.257Z,1000.10
2018-09-03T02:15:16.143Z,1000.08
2018-09-03T02:16:22.042Z,1000.13
2018-09-03T02:17:28.432Z,1000.11
2018-09-03T02:18:34.806Z,1000.02
2018-09-03T02:19:41.288Z,1000.07
2018-09-03T02:20:47.595Z,1000.06
2018-09-03T02:21:54.482Z,1000.08
2018-09-03T02:23:00.371Z,1000.10
2018-09-03T02:24:06.766Z,1000.03
2018-09-03T02:25:13.148Z,1000.03
2018-09-03T02:26:19.561Z,1000.07
2018-09-03T02:27:26.428Z,1000.08
2018-09-03T02:28:32.343Z,1000.06
2018-09-03T02:29:38.734Z,1000.06
2018-09-03T02:30:45.132Z,1000.07
2018-09-03T02:31:51.515Z,1000.05
2018-09-03T02:32:57.912Z,1000.06
2018-09-03T02:34:04.298Z,1000.04
2018-09-03T02:35:10.706Z,1000.03
2018-09-03T02:36:18.089Z,999.98
2018-09-03T02:37:23.484Z,999.95
2018-09-03T02:38:29.895Z,999.95
2018-09-03T02:39:36.297Z,999.87
2018-09-03T02:40:42.683Z,999.87
2018-09-03T02:41:49.078Z,999.84
2018-09-03T02:42:55.473Z,999.81
2018-09-03T02:44:01.865Z,999.87
2018-09-03T02:45:08.287Z,999.79
2018-09-03T02:46:14.661Z,999.82
2018-09-03T02:47:21.565Z,999.79
2018-09-03T02:48:27.479Z,999.82
2018-09-03T02:49:34.364Z,999.78
2018-09-03T02:50:40.257Z,999.81
2018-09-03T02:51:46.667Z,999.76
2018-09-03T02:52:53.066Z,999.75
2018-09-03T02:53:59.457Z,999.75
2018-09-03T02:55:05.854Z,999.74
2018-09-03T02:56:12.247Z,999.74
2018-09-03T02:57:19.167Z,999.75
2018-09-03T02:58:25.058Z,999.74
2018-09-03T02:59:31.450Z,999.77
2018-09-03T03:00:37.850Z,999.81
2018-09-03T03:01:44.735Z,999.80
2018-09-03T03:02:50.677Z,999.73
2018-09-03T03:03:57.058Z,999.73
2018-09-03T03:05:03.453Z,999.71
2018-09-03T03:06:09.853Z,999.70
2018-09-03T03:07:16.262Z,999.67
2018-09-03T03:08:22.726Z,999.65
2018-09-03T03:09:29.078Z,999.63
2018-09-03T03:10:35.979Z,999.64
2018-09-03T03:11:42.397Z,999.62
2018-09-03T03:12:48.290Z,999.59
2018-09-03T03:13:55.274Z,999.53
2018-09-03T03:15:01.124Z,999.50
2018-09-03T03:16:07.504Z,999.51
2018-09-03T03:17:15.393Z,999.49
2018-09-03T03:18:20.324Z,999.43
2018-09-03T03:19:26.723Z,999.40
2018-09-03T03:20:33.610Z,999.39
2018-09-03T03:21:39.527Z,999.36
2018-09-03T03:22:46.417Z,999.38
2018-09-03T03:23:53.329Z,999.37
2018-09-03T03:24:59.270Z,999.34
2018-09-03T03:26:05.645Z,999.32
2018-09-03T03:27:11.551Z,999.28
2018-09-03T03:28:18.464Z,999.22
2018-09-03T03:29:24.854Z,999.26
2018-09-03T03:30:31.255Z,999.21
2018-09-03T03:31:37.163Z,999.23
2018-09-03T03:32:43.576Z,999.30
2018-09-03T03:33:50.478Z,999.32
2018-09-03T03:34:56.369Z,999.25
2018-09-03T03:36:03.278Z,999.27
2018-09-03T03:37:09.187Z,999.24
2018-09-03T03:38:15.587Z,999.21
2018-09-03T03:39:22.474Z,999.19
2018-09-03T03:40:28.896Z,999.18
2018-09-03T03:41:35.294Z,999.08
2018-09-03T03:42:41.196Z,999.08
2018-09-03T03:43:47.622Z,999.05
2018-09-03T03:44:54.009Z,999.02
2018-09-03T03:46:00.404Z,998.99
2018-09-03T03:47:07.298Z,999.01
2018-09-03T03:48:13.216Z,998.99
2018-09-03T03:49:20.597Z,998.94
2018-09-03T03:50:26.012Z,998.96
2018-09-03T03:51:32.912Z,998.95
2018-09-03T03:52:38.811Z,998.96
2018-09-03T03:53:45.718Z,998.93
2018-09-03T03:54:51.621Z,998.96
2018-09-03T03:55:58.029Z,998.95
2018-09-03T03:57:04.931Z,998.92
2018-09-03T03:58:10.835Z,998.91
2018-09-03T03:59:17.296Z,998.87
2018-09-03T04:00:24.131Z,998.88
2018-09-03T04:01:30.041Z,998.88
2018-09-03T04:02:36.444Z,998.90
2018-09-03T04:03:42.856Z,998.93
2018-09-03T04:04:49.254Z,998.93
2018-09-03T04:05:55.638Z,998.96
2018-09-03T04:07:02.045Z,998.96
2018-09-03T04:08:08.451Z,998.97
2018-09-03T04:09:15.370Z,998.98
2018-09-03T04:10:21.260Z,998.98
2018-09-03T04:11:27.672Z,998.97
2018-09-03T04:12:34.079Z,998.95
2018-09-03T04:13:40.970Z,998.92
2018-09-03T04:14:47.385Z,998.89
2018-09-03T04:15:53.301Z,998.92
2018-09-03T04:16:59.694Z,998.92
2018-09-03T04:18:06.101Z,998.93
2018-09-03T04:19:13.996Z,998.93
2018-09-03T04:20:19.404Z,998.95
2018-09-03T04:21:26.310Z,998.93
2018-09-03T04:22:31.725Z,998.99
2018-09-03T04:23:38.134Z,998.97
2018-09-03T04:24:44.529Z,999.01
2018-09-03T04:25:50.936Z,999.01
2018-09-03T04:26:57.340Z,999.03
2018-09-03T04:28:03.749Z,999.01
2018-09-03T04:29:10.641Z,999.05
2018-09-03T04:30:17.036Z,998.99
2018-09-03T04:31:22.957Z,998.98
2018-09-03T04:32:29.362Z,998.98
2018-09-03T04:33:35.801Z,999.00
2018-09-03T04:34:42.669Z,999.06
2018-09-03T04:35:48.576Z,999.05
2018-09-03T04:36:55.467Z,999.09
2018-09-03T04:38:01.373Z,999.13
2018-09-03T04:39:07.792Z,999.07
2018-09-03T04:40:14.670Z,999.06
2018-09-03T04:41:20.580Z,998.99
2018-09-03T04:42:26.980Z,998.94
2018-09-03T04:43:33.872Z,998.92
2018-09-03T04:44:39.779Z,998.91
2018-09-03T04:45:46.192Z,998.86
2018-09-03T04:46:52.594Z,998.88
2018-09-03T04:47:58.994Z,998.90
2018-09-03T04:49:05.874Z,998.89
2018-09-03T04:50:11.773Z,998.91
2018-09-03T04:51:18.275Z,998.86
2018-09-03T04:52:25.055Z,998.91
2018-09-03T04:53:30.966Z,998.94
2018-09-03T04:54:37.863Z,998.95
2018-09-03T04:55:43.762Z,998.97
2018-09-03T04:56:50.679Z,998.95
2018-09-03T04:57:56.567Z,998.97
2018-09-03T04:59:03.465Z,998.98
2018-09-03T05:00:09.855Z,998.93
2018-09-03T05:01:15.753Z,998.96
2018-09-03T05:02:23.656Z,998.96
2018-09-03T05:03:28.571Z,998.93
2018-09-03T05:04:35.468Z,998.92
2018-09-03T05:05:41.433Z,998.93
2018-09-03T05:06:47.784Z,998.95
2018-09-03T05:07:54.289Z,998.98
2018-09-03T05:09:00.591Z,999.05
2018-09-03T05:10:06.996Z,999.03
2018-09-03T05:11:13.894Z,999.08
2018-09-03T05:12:19.800Z,999.08
2018-09-03T05:13:26.214Z,999.13
2018-09-03T05:14:32.630Z,999.14
2018-09-03T05:15:39.040Z,999.14
2018-09-03T05:16:45.443Z,999.18
2018-09-03T05:17:51.848Z,999.19
2018-09-03T05:18:58.256Z,999.19
2018-09-03T05:20:04.670Z,999.19
2018-09-03T05:21:11.082Z,999.15
2018-09-03T05:22:17.474Z,999.19
2018-09-03T05:23:23.893Z,999.17
2018-09-03T05:24:30.306Z,999.24
2018-09-03T05:25:37.213Z,999.18
2018-09-03T05:26:43.632Z,999.24
2018-09-03T05:27:49.557Z,999.19
2018-09-03T05:28:55.972Z,999.21
2018-09-03T05:30:02.888Z,999.22
2018-09-03T05:31:08.837Z,999.25
2018-09-03T05:32:15.193Z,999.23
2018-09-03T05:33:21.624Z,999.26
2018-09-03T05:34:28.536Z,999.28
2018-09-03T05:35:34.452Z,999.31
2018-09-03T05:36:40.875Z,999.29
2018-09-03T05:37:47.281Z,999.26
2018-09-03T05:38:53.706Z,999.27
2018-09-03T05:40:00.135Z,999.21
2018-09-03T05:41:06.548Z,999.26
2018-09-03T05:42:12.969Z,999.23
2018-09-03T05:43:19.480Z,999.21
2018-09-03T05:44:25.820Z,999.19
2018-09-03T05:45:33.226Z,999.16
2018-09-03T05:46:38.657Z,999.09
2018-09-03T05:47:45.083Z,999.08
2018-09-03T05:48:51.515Z,999.08
2018-09-03T05:49:58.431Z,999.14
2018-09-03T05:51:04.364Z,999.12
2018-09-03T05:52:10.795Z,999.13
2018-09-03T05:53:17.218Z,999.13
2018-09-03T05:54:24.438Z,999.17
2018-09-03T05:55:31.077Z,999.11
2018-09-03T05:56:37.008Z,999.14
2018-09-03T05:57:43.442Z,999.14
2018-09-03T05:58:49.378Z,999.13
2018-09-03T05:59:55.819Z,999.18
2018-09-03T06:01:03.248Z,999.18
2018-09-03T06:02:09.191Z,999.18
2018-09-03T06:03:15.128Z,999.16
2018-09-03T06:04:21.572Z,999.13
2018-09-03T06:05:28.509Z,999.10
2018-09-03T06:06:34.452Z,999.07
2018-09-03T06:07:40.891Z,999.05
2018-09-03T06:08:47.347Z,999.04
2018-09-03T06:09:53.786Z,999.04
2018-09-03T06:11:00.228Z,999.10
2018-09-03T06:12:06.686Z,999.09
2018-09-03T06:13:13.625Z,999.08
2018-09-03T06:14:20.054Z,999.06
2018-09-03T06:15:26.521Z,999.07
2018-09-03T06:16:32.456Z,999.05
2018-09-03T06:17:38.880Z,999.09
2018-09-03T06:18:45.323Z,999.00
2018-09-03T06:19:51.779Z,999.06
2018-09-03T06:20:58.232Z,999.02
2018-09-03T06:22:04.660Z,999.00
2018-09-03T06:23:11.593Z,999.00
2018-09-03T06:24:17.560Z,998.97
2018-09-03T06:25:24.501Z,998.96
2018-09-03T06:26:30.945Z,999.02
2018-09-03T06:27:37.376Z,999.00
2018-09-03T06:28:43.657Z,999.00
2018-09-03T06:29:49.800Z,998.97
2018-09-03T06:30:56.244Z,998.96
2018-09-03T06:32:02.700Z,998.95
2018-09-03T06:33:09.647Z,998.94
2018-09-03T06:34:16.131Z,998.93
2018-09-03T06:35:22.569Z,998.91
2018-09-03T06:36:29.029Z,998.90
2018-09-03T06:37:34.981Z,998.87
2018-09-03T06:38:41.437Z,998.90
2018-09-03T06:39:47.910Z,998.90
2018-09-03T06:40:54.359Z,998.97
2018-09-03T06:42:00.819Z,998.97
2018-09-03T06:43:07.293Z,998.95
2018-09-03T06:44:14.273Z,998.96
2018-09-03T06:45:20.217Z,998.97
2018-09-03T06:46:26.670Z,998.94
2018-09-03T06:47:33.644Z,998.96
2018-09-03T06:48:39.606Z,998.94
2018-09-03T06:49:46.583Z,998.93
2018-09-03T06:50:52.569Z,998.89
2018-09-03T06:51:59.533Z,998.82
2018-09-03T06:53:05.507Z,998.83
2018-09-03T06:54:11.988Z,998.78
2018-09-03T06:55:18.478Z,998.75
2018-09-03T06:56:24.954Z,998.78
2018-09-03T06:57:32.935Z,998.77
2018-09-03T06:58:37.931Z,998.86
2018-09-03T06:59:44.723Z,998.84
2018-09-03T07:00:51.417Z,998.87
2018-09-03T07:01:57.403Z,998.84
2018-09-03T07:03:03.910Z,998.86
2018-09-03T07:04:10.413Z,998.83
2018-09-03T07:05:16.899Z,998.85
2018-09-03T07:06:23.402Z,998.85
2018-09-03T07:07:29.922Z,998.84
2018-09-03T07:08:36.891Z,998.80
2018-09-03T07:09:42.911Z,998.75
2018-09-03T07:10:49.435Z,998.77
2018-09-03T07:11:55.929Z,998.79
2018-09-03T07:13:02.445Z,998.80
2018-09-03T07:14:08.956Z,998.81
2018-09-03T07:15:15.477Z,998.84
2018-09-03T07:16:21.986Z,998.87
2018-09-03T07:17:28.514Z,998.88
2018-09-03T07:18:35.061Z,998.96
2018-09-03T07:19:41.556Z,998.89
2018-09-03T07:20:48.085Z,998.91
2018-09-03T07:21:54.605Z,998.93
2018-09-03T07:23:01.133Z,998.94
2018-09-03T07:24:08.156Z,998.96
2018-09-03T07:25:14.295Z,998.97
2018-09-03T07:26:21.218Z,998.94
2018-09-03T07:27:27.248Z,998.90
2018-09-03T07:28:34.285Z,998.91
2018-09-03T07:29:40.309Z,998.88
2018-09-03T07:30:46.852Z,998.88
2018-09-03T07:31:53.378Z,998.86
2018-09-03T07:33:00.417Z,998.90
2018-09-03T07:34:06.466Z,998.86
2018-09-03T07:35:13.079Z,998.77
2018-09-03T07:36:19.574Z,998.78
2018-09-03T07:37:26.597Z,998.74
2018-09-03T07:38:32.643Z,998.71
2018-09-03T07:39:39.191Z,998.71
2018-09-03T07:40:46.272Z,998.69
2018-09-03T07:41:53.266Z,998.72
2018-09-03T07:42:58.816Z,998.75
2018-09-03T07:44:05.378Z,998.73
2018-09-03T07:45:12.405Z,998.76
2018-09-03T07:46:18.943Z,998.71
2018-09-03T07:47:24.974Z,998.70
2018-09-03T07:48:31.821Z,998.74
2018-09-03T07:49:38.552Z,998.72
2018-09-03T07:50:44.599Z,998.74
2018-09-03T07:51:51.184Z,998.77
2018-09-03T07:52:57.675Z,998.81
2018-09-03T07:54:04.270Z,998.78
2018-09-03T07:55:11.264Z,998.82
2018-09-03T07:56:17.323Z,998.81
2018-09-03T07:57:23.881Z,998.80
2018-09-03T07:58:30.429Z,998.76
2018-09-03T07:59:36.985Z,998.72
2018-09-03T08:00:44.052Z,998.72
2018-09-03T08:01:50.107Z,998.78
2018-09-03T08:02:57.169Z,998.79
2018-09-03T08:04:03.218Z,998.82
2018-09-03T08:05:10.280Z,998.80
2018-09-03T08:06:16.833Z,998.83
2018-09-03T08:07:22.971Z,998.80
2018-09-03T08:08:29.462Z,998.77
2018-09-03T08:09:36.025Z,998.72
2018-09-03T08:10:42.600Z,998.68
2018-09-03T08:11:49.657Z,998.64
2018-09-03T08:12:55.734Z,998.59
2018-09-03T08:14:02.279Z,998.61
2018-09-03T08:15:09.345Z,998.58
2018-09-03T08:16:15.418Z,998.54
2018-09-03T08:17:22.299Z,998.59
2018-09-03T08:18:28.560Z,998.57
2018-09-03T08:19:35.127Z,998.59
2018-09-03T08:20:42.271Z,998.57
2018-09-03T08:21:48.286Z,998.60
2018-09-03T08:22:55.351Z,998.63
2018-09-03T08:24:01.728Z,998.58
2018-09-03T08:25:08.025Z,998.61
2018-09-03T08:26:14.602Z,998.62
2018-09-03T08:27:21.676Z,998.62
2018-09-03T08:28:27.769Z,998.63
2018-09-03T08:29:34.856Z,998.64
2018-09-03T08:30:41.914Z,998.64
2018-09-03T08:31:47.510Z,998.63
2018-09-03T08:32:54.087Z,998.65
2018-09-03T08:34:00.667Z,998.63
2018-09-03T08:35:07.233Z,998.61
2018-09-03T08:36:13.806Z,998.58
2018-09-03T08:37:20.371Z,998.55
2018-09-03T08:38:26.955Z,998.59
2018-09-03T08:39:33.516Z,998.66
2018-09-03T08:40:40.602Z,998.66
2018-09-03T08:41:47.178Z,998.58
2018-09-03T08:42:53.256Z,998.56
2018-09-03T08:43:59.829Z,998.57
2018-09-03T08:45:06.908Z,998.51
2018-09-03T08:46:12.990Z,998.49
2018-09-03T08:47:19.581Z,998.49
2018-09-03T08:48:26.276Z,998.42
2018-09-03T08:49:32.769Z,998.46
2018-09-03T08:50:39.391Z,998.45
2018-09-03T08:51:45.996Z,998.44
2018-09-03T08:52:52.607Z,998.45
2018-09-03T08:53:59.235Z,998.45
2018-09-03T08:55:05.848Z,998.49
2018-09-03T08:56:12.477Z,998.44
2018-09-03T08:57:19.115Z,998.48
2018-09-03T08:58:25.766Z,998.46
2018-09-03T08:59:32.410Z,998.47
2018-09-03T09:00:39.051Z,998.45
2018-09-03T09:01:46.274Z,998.41
2018-09-03T09:02:52.356Z,998.43
2018-09-03T09:03:59.003Z,998.39
2018-09-03T09:05:05.665Z,998.40
2018-09-03T09:06:12.332Z,998.42
2018-09-03T09:07:18.998Z,998.40
2018-09-03T09:08:25.646Z,998.35
2018-09-03T09:09:32.320Z,998.38
2018-09-03T09:10:38.981Z,998.35
2018-09-03T09:11:45.712Z,998.39
2018-09-03T09:12:52.305Z,998.36
2018-09-03T09:13:58.956Z,998.38
2018-09-03T09:15:05.610Z,998.38
2018-09-03T09:16:12.255Z,998.47
2018-09-03T09:17:18.899Z,998.39
2018-09-03T09:18:26.031Z,998.37
2018-09-03T09:19:32.272Z,998.35
2018-09-03T09:20:39.806Z,998.32
2018-09-03T09:21:45.442Z,998.31
2018-09-03T09:22:52.060Z,998.28
2018-09-03T09:23:58.712Z,998.28
2018-09-03T09:25:05.381Z,998.35
2018-09-03T09:26:11.955Z,998.30
2018-09-03T09:27:18.598Z,998.32
2018-09-03T09:28:25.728Z,998.30
2018-09-03T09:29:31.870Z,998.27
2018-09-03T09:30:38.492Z,998.27
2018-09-03T09:31:45.161Z,998.26
2018-09-03T09:32:52.277Z,998.26
2018-09-03T09:33:58.412Z,998.25
2018-09-03T09:35:05.041Z,998.24
2018-09-03T09:36:11.686Z,998.27
2018-09-03T09:37:18.324Z,998.29
2018-09-03T09:38:24.951Z,998.27
2018-09-03T09:39:31.595Z,998.27
2018-09-03T09:40:38.249Z,998.28
2018-09-03T09:41:45.393Z,998.27
2018-09-03T09:42:51.568Z,998.24
2018-09-03T09:43:58.154Z,998.29
2018-09-03T09:45:05.286Z,998.22
2018-09-03T09:46:11.931Z,998.22
2018-09-03T09:47:18.071Z,998.17
2018-09-03T09:48:24.694Z,998.15
2018-09-03T09:49:31.337Z,998.16
2018-09-03T09:50:37.980Z,998.16
2018-09-03T09:51:44.630Z,998.11
2018-09-03T09:52:51.262Z,998.12
2018-09-03T09:53:57.920Z,998.11
2018-09-03T09:55:04.553Z,998.16
2018-09-03T09:56:11.696Z,998.14
2018-09-03T09:57:17.852Z,998.15
2018-09-03T09:58:24.497Z,998.17
2018-09-03T09:59:31.152Z,998.08
2018-09-03T10:00:37.794Z,998.12
2018-09-03T10:01:44.454Z,998.10
2018-09-03T10:02:51.627Z,998.08
2018-09-03T10:03:57.806Z,998.04
2018-09-03T10:05:04.494Z,998.10
2018-09-03T10:06:11.181Z,998.10
2018-09-03T10:07:17.881Z,998.08
2018-09-03T10:08:24.579Z,998.03
2018-09-03T10:09:31.769Z,998.08
2018-09-03T10:10:37.975Z,998.09
2018-09-03T10:11:45.184Z,998.17
2018-09-03T10:12:51.428Z,998.17
2018-09-03T10:13:59.076Z,998.07
2018-09-03T10:15:04.816Z,998.09
2018-09-03T10:16:11.525Z,998.04
2018-09-03T10:17:18.227Z,998.06
2018-09-03T10:18:24.943Z,998.12
2018-09-03T10:19:32.278Z,998.06
2018-09-03T10:20:38.386Z,998.03
2018-09-03T10:21:45.153Z,998.06
2018-09-03T10:22:51.863Z,998.09
2018-09-03T10:23:58.585Z,998.04
2018-09-03T10:25:05.309Z,998.09
2018-09-03T10:26:12.096Z,998.06
2018-09-03T10:27:18.783Z,998.08
2018-09-03T10:28:25.980Z,998.14
2018-09-03T10:29:32.287Z,998.09
2018-09-03T10:30:38.918Z,998.05
2018-09-03T10:31:45.666Z,998.03
2018-09-03T10:32:52.844Z,998.02
2018-09-03T10:33:59.062Z,998.06
2018-09-03T10:35:05.773Z,998.06
2018-09-03T10:36:12.983Z,998.07
2018-09-03T10:37:19.228Z,998.12
2018-09-03T10:38:25.932Z,998.02
2018-09-03T10:39:32.626Z,998.02
2018-09-03T10:40:39.845Z,998.02
2018-09-03T10:41:46.550Z,998.02
2018-09-03T10:42:52.776Z,998.08
2018-09-03T10:43:59.488Z,998.01
2018-09-03T10:45:06.764Z,998.06
2018-09-03T10:46:12.922Z,998.05
2018-09-03T10:47:19.797Z,998.11
2018-09-03T10:48:26.381Z,998.05
2018-09-03T10:49:33.086Z,998.07
2018-09-03T10:50:39.810Z,998.06
2018-09-03T10:51:47.518Z,998.04
2018-09-03T10:52:53.735Z,998.06
2018-09-03T10:54:00.948Z,998.02
2018-09-03T10:55:06.645Z,998.01
2018-09-03T10:56:13.399Z,998.02
2018-09-03T10:57:20.065Z,998.01
2018-09-03T10:58:27.261Z,997.99
2018-09-03T10:59:33.458Z,997.88
2018-09-03T11:00:40.651Z,997.89
2018-09-03T11:01:46.857Z,997.89
2018-09-03T11:02:54.057Z,997.85
2018-09-03T11:04:00.253Z,997.73
2018-09-03T11:05:06.983Z,997.80
2018-09-03T11:06:13.690Z,997.77
2018-09-03T11:07:20.437Z,997.78
2018-09-03T11:08:27.138Z,997.78
2018-09-03T11:09:33.865Z,997.78
2018-09-03T11:10:40.585Z,997.73
2018-09-03T11:11:47.300Z,997.74
2018-09-03T11:12:54.046Z,997.71
2018-09-03T11:14:00.782Z,997.78
2018-09-03T11:15:07.508Z,997.73
2018-09-03T11:16:14.253Z,997.71
2018-09-03T11:17:20.996Z,997.69
2018-09-03T11:18:27.739Z,997.74
2018-09-03T11:19:34.465Z,997.73
2018-09-03T11:20:41.737Z,997.73
2018-09-03T11:21:47.962Z,997.67
2018-09-03T11:22:54.714Z,997.67
2018-09-03T11:24:01.463Z,997.71
2018-09-03T11:25:08.193Z,997.67
2018-09-03T11:26:14.954Z,997.70
2018-09-03T11:27:22.197Z,997.71
2018-09-03T11:28:28.440Z,997.70
2018-09-03T11:29:35.191Z,997.71
2018-09-03T11:30:41.957Z,997.71
2018-09-03T11:31:48.690Z,997.72
2018-09-03T11:32:55.438Z,997.71
2018-09-03T11:34:02.282Z,997.73
2018-09-03T11:35:08.911Z,997.71
2018-09-03T11:36:15.627Z,997.72
2018-09-03T11:37:22.355Z,997.78
2018-09-03T11:38:29.074Z,997.73
2018-09-03T11:39:38.390Z,997.71
2018-09-03T11:40:42.529Z,997.75
2018-09-03T11:41:49.288Z,997.71
2018-09-03T11:42:55.888Z,997.69
2018-09-03T11:44:02.783Z,997.71
2018-09-03T11:45:09.778Z,997.71
2018-09-03T11:46:15.969Z,997.74
2018-09-03T11:47:22.667Z,997.73
2018-09-03T11:48:29.848Z,997.71
2018-09-03T11:49:36.047Z,997.71
2018-09-03T11:50:42.731Z,997.71
2018-09-03T11:51:49.420Z,997.65
2018-09-03T11:52:57.108Z,997.64
2018-09-03T11:54:02.814Z,997.69
2018-09-03T11:55:09.514Z,997.66
2018-09-03T11:56:16.690Z,997.66
2018-09-03T11:57:22.907Z,997.68
2018-09-03T11:58:29.612Z,997.67
2018-09-03T11:59:36.819Z,997.70
2018-09-03T12:00:43.037Z,997.72
2018-09-03T12:01:49.735Z,997.73
2018-09-03T12:02:56.426Z,997.73
2018-09-03T12:04:03.139Z,997.75
2018-09-03T12:05:09.844Z,997.76
2018-09-03T12:06:16.536Z,997.75
2018-09-03T12:07:23.230Z,997.77
2018-09-03T12:08:29.950Z,997.79
2018-09-03T12:09:36.647Z,997.75
2018-09-03T12:10:43.313Z,997.76
2018-09-03T12:11:50.527Z,997.69
2018-09-03T12:12:56.738Z,997.68
2018-09-03T12:14:03.446Z,997.67
2018-09-03T12:15:10.177Z,997.65
2018-09-03T12:16:16.887Z,997.60
2018-09-03T12:17:23.616Z,997.64
2018-09-03T12:18:30.368Z,997.65
2018-09-03T12:19:37.089Z,997.65
2018-09-03T12:20:43.847Z,997.64
2018-09-03T12:21:50.554Z,997.68
2018-09-03T12:22:57.283Z,997.68
2018-09-03T12:24:04.008Z,997.68
2018-09-03T12:25:11.273Z,997.68
2018-09-03T12:26:17.460Z,997.69
2018-09-03T12:27:24.177Z,997.70
2018-09-03T12:28:30.908Z,997.67
2018-09-03T12:29:37.628Z,997.68
2018-09-03T12:30:44.340Z,997.68
2018-09-03T12:31:52.534Z,997.68
2018-09-03T12:32:57.772Z,997.68
2018-09-03T12:34:04.549Z,997.68
2018-09-03T12:35:11.299Z,997.71
2018-09-03T12:36:17.932Z,997.66
2018-09-03T12:37:25.155Z,997.66
2018-09-03T12:38:31.391Z,997.63
2018-09-03T12:39:38.628Z,997.61
2018-09-03T12:40:44.856Z,997.63
2018-09-03T12:41:52.089Z,997.64
2018-09-03T12:42:58.379Z,997.59
2018-09-03T12:44:05.087Z,997.63
2018-09-03T12:45:11.822Z,997.62
2018-09-03T12:46:19.090Z,997.64
2018-09-03T12:47:25.321Z,997.62
2018-09-03T12:48:32.066Z,997.60
2018-09-03T12:49:38.818Z,997.63
2018-09-03T12:50:45.562Z,997.63
2018-09-03T12:51:52.296Z,997.62
2018-09-03T12:52:59.036Z,997.63
2018-09-03T12:54:05.772Z,997.59
2018-09-03T12:55:12.515Z,997.59
2018-09-03T12:56:19.238Z,997.55
2018-09-03T12:57:25.988Z,997.55
2018-09-03T12:58:32.717Z,997.52
2018-09-03T12:59:39.428Z,997.53
2018-09-03T13:00:46.677Z,997.57
2018-09-03T13:01:52.865Z,997.64
2018-09-03T13:02:59.630Z,997.61
2018-09-03T13:04:06.307Z,997.58
2018-09-03T13:05:13.010Z,997.57
2018-09-03T13:06:19.833Z,997.55
2018-09-03T13:07:26.441Z,997.53
2018-09-03T13:08:33.276Z,997.53
2018-09-03T13:09:39.903Z,997.54
2018-09-03T13:10:46.679Z,997.54
2018-09-03T13:11:53.856Z,997.57
2018-09-03T13:13:00.195Z,997.55
2018-09-03T13:14:06.867Z,997.52
2018-09-03T13:15:13.587Z,997.51
2018-09-03T13:16:20.332Z,997.50
2018-09-03T13:17:28.080Z,997.49
2018-09-03T13:18:34.336Z,997.42
2018-09-03T13:19:41.106Z,997.43
2018-09-03T13:20:47.349Z,997.43
2018-09-03T13:21:54.115Z,997.50
2018-09-03T13:23:01.062Z,997.45
2018-09-03T13:24:07.835Z,997.45
2018-09-03T13:25:14.895Z,997.45
2018-09-03T13:26:21.174Z,997.47
2018-09-03T13:27:27.965Z,997.44
2018-09-03T13:28:34.750Z,997.42
2018-09-03T13:29:42.029Z,997.39
2018-09-03T13:30:48.355Z,997.39
2018-09-03T13:31:55.128Z,997.45
2018-09-03T13:33:01.916Z,997.34
2018-09-03T13:34:08.745Z,997.34
2018-09-03T13:35:15.540Z,997.30
2018-09-03T13:36:22.850Z,997.30
2018-09-03T13:37:29.681Z,997.29
2018-09-03T13:38:36.010Z,997.26
2018-09-03T13:39:42.849Z,997.26
2018-09-03T13:40:49.684Z,997.27
2018-09-03T13:41:56.525Z,997.23
2018-09-03T13:43:03.881Z,997.26
2018-09-03T13:44:11.305Z,997.24
2018-09-03T13:45:17.018Z,997.17